الصفحة الرئيسية
METAR-TAF:

METAR-TAF

مطار :

مطار تان سون نهات الدولي

هو تشي منه, فيتنام

دائرة عرض: 10-49N, خط طول: 106-40E, ارتفاع: 19 متر

مراقبة الطقس الحالي

تاريخ ووقت الإصدار 39 دقيقة قبل الساعة 22:30UTC
ريح 3 عقدة من الشرق/الجنوب الشرقي
درجة الحرارة 26°درجة مئوية
الرطوبة 94%
ضغط 1012 hPa
الرؤية 10 كم أو أكثر
غيوم قليلة على ارتفاع 1700 قدم
غيوم متفرقة على ارتفاع 5000 قدم

METAR: VVTS 202230Z 11003KT 9999 FEW017 SCT050 26/25 Q1012 NOSIG

زمن: 06:09 (23:09 UTC)

توقعات

تاريخ ووقت الإصدار 6ساعات و 9 دقيقة قبل الساعة 17:00UTC
التوقعات صالحة من20 الساعة 18 UTC إلى 21 الساعة 24 UTC
ريح 8 عقدة من الجنوب الشرقي
الرؤية 10 كم أو أكثر
غيوم متفرقة على ارتفاع 1700 قدم
مؤقت
من 21 الساعة 07 UTC إلى 21 الساعة 12 UTC
الرؤية: 3000 متر
غيوم مفككة على ارتفاع 1500 قدم
غيوم متفرقة على ارتفاع 1700 قدم, مزنة ركامية.
عاصفة رعدية, مطر

TAF: VVTS 201700Z 2018/2124 14008KT 9999 SCT017 TEMPO 2107/2112 3000 TSRA BKN015 SCT017CB

أرصاد الطقس والتوقعات من أكثر من 4000 مطار (تقارير الطقس للمطار METAR والتنبؤ بالطقس بالمطارTAF).

المحطات المتاحة هي النقط الصفراء والحمراء على الخريطة.

حرك المؤشر فوق النقطة لمعرفة اسم المحطة.

ثم انقر لمعرفة أرصاد وتوقعات الطقس.

لتغيير الخارطة: اضغط على الأزرار الخضراء مع رمز الصليب الأسود للتكبير. على الزر الأخضر مع شرطة للتصغير، أو على الأسهم الخضراء للخرائط المجاورة.


METAR-TAF: